sensor_id;sensor_type;location;lat;lon;timestamp;temperature;humidity
17859;DHT22;35426;30.698;104.050;2023-07-22T00:00:29;44.80;99.90
17859;DHT22;35426;30.698;104.050;2023-07-22T00:03:03;45.20;99.90
17859;DHT22;35426;30.698;104.050;2023-07-22T00:05:39;46.50;99.90
17859;DHT22;35426;30.698;104.050;2023-07-22T00:08:16;46.30;99.90
17859;DHT22;35426;30.698;104.050;2023-07-22T00:10:49;46.10;99.90
17859;DHT22;35426;30.698;104.050;2023-07-22T00:13:22;47.20;99.90
17859;DHT22;35426;30.698;104.050;2023-07-22T00:15:58;47.60;99.90
17859;DHT22;35426;30.698;104.050;2023-07-22T00:18:32;49.00;99.90
17859;DHT22;35426;30.698;104.050;2023-07-22T00:21:05;49.60;98.30
17859;DHT22;35426;30.698;104.050;2023-07-22T00:23:42;48.40;97.60
17859;DHT22;35426;30.698;104.050;2023-07-22T00:26:17;48.60;97.00
17859;DHT22;35426;30.698;104.050;2023-07-22T00:28:50;48.90;96.40
17859;DHT22;35426;30.698;104.050;2023-07-22T00:31:25;48.00;96.10
17859;DHT22;35426;30.698;104.050;2023-07-22T00:33:57;45.90;97.80
17859;DHT22;35426;30.698;104.050;2023-07-22T00:36:32;45.10;98.90
17859;DHT22;35426;30.698;104.050;2023-07-22T00:39:10;44.80;99.70
17859;DHT22;35426;30.698;104.050;2023-07-22T00:41:44;45.30;99.00
17859;DHT22;35426;30.698;104.050;2023-07-22T00:44:18;46.00;99.00
17859;DHT22;35426;30.698;104.050;2023-07-22T00:46:55;47.10;97.40
17859;DHT22;35426;30.698;104.050;2023-07-22T00:49:32;48.00;96.50
17859;DHT22;35426;30.698;104.050;2023-07-22T00:52:08;47.90;96.10
17859;DHT22;35426;30.698;104.050;2023-07-22T00:54:43;48.30;94.90
17859;DHT22;35426;30.698;104.050;2023-07-22T00:57:17;49.10;93.90
17859;DHT22;35426;30.698;104.050;2023-07-22T00:59:52;49.40;93.40
17859;DHT22;35426;30.698;104.050;2023-07-22T01:02:26;49.10;93.60
17859;DHT22;35426;30.698;104.050;2023-07-22T01:05:00;49.40;92.60
17859;DHT22;35426;30.698;104.050;2023-07-22T01:07:34;48.20;93.60
17859;DHT22;35426;30.698;104.050;2023-07-22T01:10:13;48.30;93.50
17859;DHT22;35426;30.698;104.050;2023-07-22T01:12:48;47.70;93.30
17859;DHT22;35426;30.698;104.050;2023-07-22T01:15:23;47.80;93.10
17859;DHT22;35426;30.698;104.050;2023-07-22T01:17:57;46.00;94.10
17859;DHT22;35426;30.698;104.050;2023-07-22T01:20:32;45.20;95.40
17859;DHT22;35426;30.698;104.050;2023-07-22T01:23:08;45.20;95.70
17859;DHT22;35426;30.698;104.050;2023-07-22T01:25:41;45.20;95.40
17859;DHT22;35426;30.698;104.050;2023-07-22T01:28:16;45.10;95.70
17859;DHT22;35426;30.698;104.050;2023-07-22T01:30:50;44.80;95.70
17859;DHT22;35426;30.698;104.050;2023-07-22T01:33:25;44.20;96.40
17859;DHT22;35426;30.698;104.050;2023-07-22T01:35:59;44.40;97.00
17859;DHT22;35426;30.698;104.050;2023-07-22T01:38:37;44.20;97.40
17859;DHT22;35426;30.698;104.050;2023-07-22T01:41:11;44.50;96.90
17859;DHT22;35426;30.698;104.050;2023-07-22T01:43:46;44.60;96.90
17859;DHT22;35426;30.698;104.050;2023-07-22T01:46:23;43.10;98.60
17859;DHT22;35426;30.698;104.050;2023-07-22T01:48:58;43.80;98.90
17859;DHT22;35426;30.698;104.050;2023-07-22T01:51:33;44.80;98.50
17859;DHT22;35426;30.698;104.050;2023-07-22T01:54:10;44.50;98.60
17859;DHT22;35426;30.698;104.050;2023-07-22T01:56:45;44.40;98.50
17859;DHT22;35426;30.698;104.050;2023-07-22T01:59:18;44.90;97.80
17859;DHT22;35426;30.698;104.050;2023-07-22T02:01:52;44.60;98.60
17859;DHT22;35426;30.698;104.050;2023-07-22T02:04:26;45.30;97.20
17859;DHT22;35426;30.698;104.050;2023-07-22T02:06:59;43.90;97.80
17859;DHT22;35426;30.698;104.050;2023-07-22T02:09:37;43.80;98.30
17859;DHT22;35426;30.698;104.050;2023-07-22T02:12:12;43.10;98.80
17859;DHT22;35426;30.698;104.050;2023-07-22T02:14:45;42.00;99.90
17859;DHT22;35426;30.698;104.050;2023-07-22T02:17:19;42.00;99.90
17859;DHT22;35426;30.698;104.050;2023-07-22T02:19:54;41.50;99.90
17859;DHT22;35426;30.698;104.050;2023-07-22T02:22:27;41.00;99.90
17859;DHT22;35426;30.698;104.050;2023-07-22T02:25:03;41.20;99.90
17859;DHT22;35426;30.698;104.050;2023-07-22T02:27:37;42.50;99.90
17859;DHT22;35426;30.698;104.050;2023-07-22T02:30:14;42.10;99.90
17859;DHT22;35426;30.698;104.050;2023-07-22T02:32:48;41.90;99.90
17859;DHT22;35426;30.698;104.050;2023-07-22T02:35:21;42.30;99.90
17859;DHT22;35426;30.698;104.050;2023-07-22T02:38:00;42.30;99.90
17859;DHT22;35426;30.698;104.050;2023-07-22T02:40:38;42.40;99.90
17859;DHT22;35426;30.698;104.050;2023-07-22T02:43:12;42.20;99.90
17859;DHT22;35426;30.698;104.050;2023-07-22T02:45:46;41.80;99.90
17859;DHT22;35426;30.698;104.050;2023-07-22T02:48:19;41.50;99.90
17859;DHT22;35426;30.698;104.050;2023-07-22T02:50:53;41.70;99.90
17859;DHT22;35426;30.698;104.050;2023-07-22T02:53:30;41.30;99.90
17859;DHT22;35426;30.698;104.050;2023-07-22T02:56:06;41.10;99.90
17859;DHT22;35426;30.698;104.050;2023-07-22T02:58:41;40.70;99.90
17859;DHT22;35426;30.698;104.050;2023-07-22T03:01:14;40.70;99.90
17859;DHT22;35426;30.698;104.050;2023-07-22T03:03:48;40.80;99.90
17859;DHT22;35426;30.698;104.050;2023-07-22T03:06:22;40.90;99.90
17859;DHT22;35426;30.698;104.050;2023-07-22T03:08:57;41.30;99.90
17859;DHT22;35426;30.698;104.050;2023-07-22T03:11:39;40.90;99.90
17859;DHT22;35426;30.698;104.050;2023-07-22T03:14:14;41.00;99.90
17859;DHT22;35426;30.698;104.050;2023-07-22T03:16:49;41.10;99.90
17859;DHT22;35426;30.698;104.050;2023-07-22T03:19:23;41.00;99.90
17859;DHT22;35426;30.698;104.050;2023-07-22T03:21:56;41.50;99.90
17859;DHT22;35426;30.698;104.050;2023-07-22T03:24:29;41.40;99.90
17859;DHT22;35426;30.698;104.050;2023-07-22T03:27:05;41.10;99.90
17859;DHT22;35426;30.698;104.050;2023-07-22T03:29:39;41.00;99.90
17859;DHT22;35426;30.698;104.050;2023-07-22T03:32:13;40.90;99.90
17859;DHT22;35426;30.698;104.050;2023-07-22T03:34:47;40.90;99.90
17859;DHT22;35426;30.698;104.050;2023-07-22T03:37:22;41.00;99.90
17859;DHT22;35426;30.698;104.050;2023-07-22T03:39:56;40.80;99.90
17859;DHT22;35426;30.698;104.050;2023-07-22T03:42:31;41.00;99.90
17859;DHT22;35426;30.698;104.050;2023-07-22T03:45:08;40.70;99.90
17859;DHT22;35426;30.698;104.050;2023-07-22T03:47:41;40.80;99.90
17859;DHT22;35426;30.698;104.050;2023-07-22T03:50:14;40.40;99.90
17859;DHT22;35426;30.698;104.050;2023-07-22T03:52:49;40.20;99.90
17859;DHT22;35426;30.698;104.050;2023-07-22T03:55:23;40.20;99.90
17859;DHT22;35426;30.698;104.050;2023-07-22T03:58:00;39.90;99.90
17859;DHT22;35426;30.698;104.050;2023-07-22T04:00:35;39.90;99.90
17859;DHT22;35426;30.698;104.050;2023-07-22T04:03:09;39.20;99.90
17859;DHT22;35426;30.698;104.050;2023-07-22T04:05:43;39.50;99.90
17859;DHT22;35426;30.698;104.050;2023-07-22T04:08:16;39.60;99.90
17859;DHT22;35426;30.698;104.050;2023-07-22T04:10:55;39.60;99.90
17859;DHT22;35426;30.698;104.050;2023-07-22T04:13:34;39.90;99.90
17859;DHT22;35426;30.698;104.050;2023-07-22T04:16:10;39.80;99.90
17859;DHT22;35426;30.698;104.050;2023-07-22T04:18:47;39.60;99.90
17859;DHT22;35426;30.698;104.050;2023-07-22T04:21:21;39.20;99.90
17859;DHT22;35426;30.698;104.050;2023-07-22T04:23:55;39.30;99.90
17859;DHT22;35426;30.698;104.050;2023-07-22T04:26:28;39.10;99.90
17859;DHT22;35426;30.698;104.050;2023-07-22T04:29:04;39.40;99.90
17859;DHT22;35426;30.698;104.050;2023-07-22T04:31:40;39.00;99.90
17859;DHT22;35426;30.698;104.050;2023-07-22T04:34:22;39.30;99.90
17859;DHT22;35426;30.698;104.050;2023-07-22T04:36:56;39.20;99.90
17859;DHT22;35426;30.698;104.050;2023-07-22T04:39:31;38.20;99.90
17859;DHT22;35426;30.698;104.050;2023-07-22T04:42:10;37.90;99.90
17859;DHT22;35426;30.698;104.050;2023-07-22T04:44:45;37.90;99.90
17859;DHT22;35426;30.698;104.050;2023-07-22T04:47:19;38.00;99.90
17859;DHT22;35426;30.698;104.050;2023-07-22T04:49:57;38.10;99.90
17859;DHT22;35426;30.698;104.050;2023-07-22T04:52:32;38.10;99.90
17859;DHT22;35426;30.698;104.050;2023-07-22T04:55:07;38.30;99.90
17859;DHT22;35426;30.698;104.050;2023-07-22T04:57:41;38.40;99.90
17859;DHT22;35426;30.698;104.050;2023-07-22T05:00:19;38.30;99.90
17859;DHT22;35426;30.698;104.050;2023-07-22T05:02:54;38.30;99.90
17859;DHT22;35426;30.698;104.050;2023-07-22T05:05:31;38.10;99.90
17859;DHT22;35426;30.698;104.050;2023-07-22T05:08:08;38.50;99.90
17859;DHT22;35426;30.698;104.050;2023-07-22T05:10:41;38.70;99.90
17859;DHT22;35426;30.698;104.050;2023-07-22T05:13:15;38.60;99.90
17859;DHT22;35426;30.698;104.050;2023-07-22T05:15:54;38.60;99.90
17859;DHT22;35426;30.698;104.050;2023-07-22T05:18:28;38.10;99.90
17859;DHT22;35426;30.698;104.050;2023-07-22T05:21:02;38.00;99.90
17859;DHT22;35426;30.698;104.050;2023-07-22T05:23:35;38.00;99.90
17859;DHT22;35426;30.698;104.050;2023-07-22T05:26:09;37.90;99.90
17859;DHT22;35426;30.698;104.050;2023-07-22T05:28:43;37.50;99.90
17859;DHT22;35426;30.698;104.050;2023-07-22T05:31:19;37.60;99.90
17859;DHT22;35426;30.698;104.050;2023-07-22T05:33:52;37.90;99.90
17859;DHT22;35426;30.698;104.050;2023-07-22T05:36:26;38.00;99.90
17859;DHT22;35426;30.698;104.050;2023-07-22T05:39:03;38.00;99.90
17859;DHT22;35426;30.698;104.050;2023-07-22T05:41:37;38.10;99.90
17859;DHT22;35426;30.698;104.050;2023-07-22T05:44:11;37.70;99.90
17859;DHT22;35426;30.698;104.050;2023-07-22T05:46:49;37.80;99.90
17859;DHT22;35426;30.698;104.050;2023-07-22T05:49:23;37.70;99.90
17859;DHT22;35426;30.698;104.050;2023-07-22T05:52:01;37.60;99.90
17859;DHT22;35426;30.698;104.050;2023-07-22T05:54:35;37.40;99.90
17859;DHT22;35426;30.698;104.050;2023-07-22T05:57:08;37.20;99.90
17859;DHT22;35426;30.698;104.050;2023-07-22T05:59:41;37.40;99.90
17859;DHT22;35426;30.698;104.050;2023-07-22T06:02:44;37.30;99.90
17859;DHT22;35426;30.698;104.050;2023-07-22T06:05:20;37.60;99.90
17859;DHT22;35426;30.698;104.050;2023-07-22T06:07:55;37.70;99.90
17859;DHT22;35426;30.698;104.050;2023-07-22T06:10:28;37.90;99.90
17859;DHT22;35426;30.698;104.050;2023-07-22T06:13:11;37.90;99.90
17859;DHT22;35426;30.698;104.050;2023-07-22T06:15:47;38.00;99.90
17859;DHT22;35426;30.698;104.050;2023-07-22T06:18:22;37.90;99.90
17859;DHT22;35426;30.698;104.050;2023-07-22T06:20:55;37.80;99.90
17859;DHT22;35426;30.698;104.050;2023-07-22T06:23:33;37.80;99.90
17859;DHT22;35426;30.698;104.050;2023-07-22T06:26:09;37.50;99.90
17859;DHT22;35426;30.698;104.050;2023-07-22T06:28:43;37.50;99.90
17859;DHT22;35426;30.698;104.050;2023-07-22T06:31:20;37.20;99.90
17859;DHT22;35426;30.698;104.050;2023-07-22T06:33:59;37.40;99.90
17859;DHT22;35426;30.698;104.050;2023-07-22T06:36:33;37.70;99.90
17859;DHT22;35426;30.698;104.050;2023-07-22T06:39:08;37.70;99.90
17859;DHT22;35426;30.698;104.050;2023-07-22T06:41:42;38.00;99.90
17859;DHT22;35426;30.698;104.050;2023-07-22T06:44:24;38.20;99.90
17859;DHT22;35426;30.698;104.050;2023-07-22T06:46:59;38.30;99.90
17859;DHT22;35426;30.698;104.050;2023-07-22T06:49:34;38.00;99.90
17859;DHT22;35426;30.698;104.050;2023-07-22T06:52:08;38.00;99.90
17859;DHT22;35426;30.698;104.050;2023-07-22T06:54:43;38.10;99.90
17859;DHT22;35426;30.698;104.050;2023-07-22T06:57:18;37.80;99.90
17859;DHT22;35426;30.698;104.050;2023-07-22T06:59:53;37.70;99.90
17859;DHT22;35426;30.698;104.050;2023-07-22T07:02:26;38.00;99.90
17859;DHT22;35426;30.698;104.050;2023-07-22T07:05:02;38.40;99.90
17859;DHT22;35426;30.698;104.050;2023-07-22T07:07:38;38.30;99.90
17859;DHT22;35426;30.698;104.050;2023-07-22T07:10:11;38.40;99.90
17859;DHT22;35426;30.698;104.050;2023-07-22T07:12:47;38.20;99.90
17859;DHT22;35426;30.698;104.050;2023-07-22T07:15:21;38.20;99.90
17859;DHT22;35426;30.698;104.050;2023-07-22T07:17:59;38.00;99.90
17859;DHT22;35426;30.698;104.050;2023-07-22T07:20:36;37.90;99.90
17859;DHT22;35426;30.698;104.050;2023-07-22T07:23:09;37.80;99.90
17859;DHT22;35426;30.698;104.050;2023-07-22T07:25:42;37.90;99.90
17859;DHT22;35426;30.698;104.050;2023-07-22T07:28:16;37.80;99.90
17859;DHT22;35426;30.698;104.050;2023-07-22T07:30:54;37.90;99.90
17859;DHT22;35426;30.698;104.050;2023-07-22T07:33:28;37.90;99.90
17859;DHT22;35426;30.698;104.050;2023-07-22T07:36:05;37.90;99.90
17859;DHT22;35426;30.698;104.050;2023-07-22T07:38:40;38.10;99.90
17859;DHT22;35426;30.698;104.050;2023-07-22T07:41:15;38.00;99.90
17859;DHT22;35426;30.698;104.050;2023-07-22T07:43:51;38.30;99.90
17859;DHT22;35426;30.698;104.050;2023-07-22T07:46:25;38.50;99.90
17859;DHT22;35426;30.698;104.050;2023-07-22T07:49:00;38.40;99.90
17859;DHT22;35426;30.698;104.050;2023-07-22T07:51:36;38.60;99.90
17859;DHT22;35426;30.698;104.050;2023-07-22T07:54:10;38.80;99.90
17859;DHT22;35426;30.698;104.050;2023-07-22T07:56:46;38.90;99.90
17859;DHT22;35426;30.698;104.050;2023-07-22T07:59:19;38.80;99.90
17859;DHT22;35426;30.698;104.050;2023-07-22T08:01:52;38.50;99.90
17859;DHT22;35426;30.698;104.050;2023-07-22T08:04:27;38.50;99.90
17859;DHT22;35426;30.698;104.050;2023-07-22T08:07:02;38.10;99.90
17859;DHT22;35426;30.698;104.050;2023-07-22T08:09:36;38.10;99.90
17859;DHT22;35426;30.698;104.050;2023-07-22T08:12:10;38.20;99.90
17859;DHT22;35426;30.698;104.050;2023-07-22T08:14:46;37.90;99.90
17859;DHT22;35426;30.698;104.050;2023-07-22T08:17:25;37.70;99.90
17859;DHT22;35426;30.698;104.050;2023-07-22T08:20:00;37.70;99.90
17859;DHT22;35426;30.698;104.050;2023-07-22T08:22:40;37.70;99.90
17859;DHT22;35426;30.698;104.050;2023-07-22T08:25:15;37.90;99.90
17859;DHT22;35426;30.698;104.050;2023-07-22T08:27:50;37.90;99.90
17859;DHT22;35426;30.698;104.050;2023-07-22T08:30:23;37.70;99.90
17859;DHT22;35426;30.698;104.050;2023-07-22T08:32:56;37.70;99.90
17859;DHT22;35426;30.698;104.050;2023-07-22T08:35:34;37.70;99.90
17859;DHT22;35426;30.698;104.050;2023-07-22T08:38:16;37.70;99.90
17859;DHT22;35426;30.698;104.050;2023-07-22T08:40:50;37.80;99.90
17859;DHT22;35426;30.698;104.050;2023-07-22T08:43:24;37.90;99.90
17859;DHT22;35426;30.698;104.050;2023-07-22T08:46:01;37.90;99.90
17859;DHT22;35426;30.698;104.050;2023-07-22T08:48:37;37.80;99.90
17859;DHT22;35426;30.698;104.050;2023-07-22T08:51:17;37.90;99.90
17859;DHT22;35426;30.698;104.050;2023-07-22T08:53:54;38.10;99.90
17859;DHT22;35426;30.698;104.050;2023-07-22T08:56:40;38.10;99.90
17859;DHT22;35426;30.698;104.050;2023-07-22T08:59:15;38.00;99.90
17859;DHT22;35426;30.698;104.050;2023-07-22T09:01:50;38.30;99.90
17859;DHT22;35426;30.698;104.050;2023-07-22T09:04:25;38.50;99.90
17859;DHT22;35426;30.698;104.050;2023-07-22T09:06:58;38.60;99.90
17859;DHT22;35426;30.698;104.050;2023-07-22T09:09:34;38.60;99.90
17859;DHT22;35426;30.698;104.050;2023-07-22T09:12:08;38.50;99.90
17859;DHT22;35426;30.698;104.050;2023-07-22T09:14:41;38.60;99.90
17859;DHT22;35426;30.698;104.050;2023-07-22T09:17:16;38.40;99.90
17859;DHT22;35426;30.698;104.050;2023-07-22T09:19:53;38.20;99.90
17859;DHT22;35426;30.698;104.050;2023-07-22T09:22:29;38.40;99.90
17859;DHT22;35426;30.698;104.050;2023-07-22T09:25:18;38.50;99.90
17859;DHT22;35426;30.698;104.050;2023-07-22T09:27:54;38.30;99.90
17859;DHT22;35426;30.698;104.050;2023-07-22T09:30:28;38.40;99.90
17859;DHT22;35426;30.698;104.050;2023-07-22T09:33:05;38.50;99.90
17859;DHT22;35426;30.698;104.050;2023-07-22T09:35:48;38.50;99.90
17859;DHT22;35426;30.698;104.050;2023-07-22T09:38:24;37.90;99.90
17859;DHT22;35426;30.698;104.050;2023-07-22T09:41:00;38.00;99.90
17859;DHT22;35426;30.698;104.050;2023-07-22T09:43:37;38.20;99.90
17859;DHT22;35426;30.698;104.050;2023-07-22T09:46:15;38.30;99.90
17859;DHT22;35426;30.698;104.050;2023-07-22T09:48:55;38.20;99.90
17859;DHT22;35426;30.698;104.050;2023-07-22T09:51:34;38.20;99.90
17859;DHT22;35426;30.698;104.050;2023-07-22T09:54:17;38.00;99.90
17859;DHT22;35426;30.698;104.050;2023-07-22T09:56:56;38.10;99.90
17859;DHT22;35426;30.698;104.050;2023-07-22T09:59:30;37.90;99.90
17859;DHT22;35426;30.698;104.050;2023-07-22T10:02:06;37.80;99.90
17859;DHT22;35426;30.698;104.050;2023-07-22T10:04:41;37.80;99.90
17859;DHT22;35426;30.698;104.050;2023-07-22T10:07:20;37.70;99.90
17859;DHT22;35426;30.698;104.050;2023-07-22T10:09:58;37.80;99.90
17859;DHT22;35426;30.698;104.050;2023-07-22T10:12:34;37.60;99.90
17859;DHT22;35426;30.698;104.050;2023-07-22T10:15:14;37.40;99.90
17859;DHT22;35426;30.698;104.050;2023-07-22T10:17:49;37.30;99.90
17859;DHT22;35426;30.698;104.050;2023-07-22T10:20:26;37.30;99.90
17859;DHT22;35426;30.698;104.050;2023-07-22T10:23:03;37.30;99.90
17859;DHT22;35426;30.698;104.050;2023-07-22T10:25:38;37.20;99.90
17859;DHT22;35426;30.698;104.050;2023-07-22T10:28:15;37.10;99.90
17859;DHT22;35426;30.698;104.050;2023-07-22T10:30:51;37.00;99.90
17859;DHT22;35426;30.698;104.050;2023-07-22T10:33:27;36.90;99.90
17859;DHT22;35426;30.698;104.050;2023-07-22T10:36:06;36.90;99.90
17859;DHT22;35426;30.698;104.050;2023-07-22T10:38:40;36.90;99.90
17859;DHT22;35426;30.698;104.050;2023-07-22T10:41:15;36.70;99.90
17859;DHT22;35426;30.698;104.050;2023-07-22T10:43:57;36.60;99.90
17859;DHT22;35426;30.698;104.050;2023-07-22T10:46:35;36.70;99.90
17859;DHT22;35426;30.698;104.050;2023-07-22T10:49:14;36.80;99.90
17859;DHT22;35426;30.698;104.050;2023-07-22T10:51:49;36.80;99.90
17859;DHT22;35426;30.698;104.050;2023-07-22T10:54:34;36.80;99.90
17859;DHT22;35426;30.698;104.050;2023-07-22T10:57:24;36.90;99.90
17859;DHT22;35426;30.698;104.050;2023-07-22T11:00:00;37.00;99.90
17859;DHT22;35426;30.698;104.050;2023-07-22T11:02:35;37.00;99.90
17859;DHT22;35426;30.698;104.050;2023-07-22T11:05:12;37.00;99.90
17859;DHT22;35426;30.698;104.050;2023-07-22T11:07:49;37.00;99.90
17859;DHT22;35426;30.698;104.050;2023-07-22T11:10:23;37.00;99.90
17859;DHT22;35426;30.698;104.050;2023-07-22T11:13:01;37.00;99.90
17859;DHT22;35426;30.698;104.050;2023-07-22T11:15:40;37.00;99.90
17859;DHT22;35426;30.698;104.050;2023-07-22T11:18:20;37.00;99.90
17859;DHT22;35426;30.698;104.050;2023-07-22T11:20:58;36.80;99.90
17859;DHT22;35426;30.698;104.050;2023-07-22T11:23:34;36.70;99.90
17859;DHT22;35426;30.698;104.050;2023-07-22T11:26:07;36.80;99.90
17859;DHT22;35426;30.698;104.050;2023-07-22T11:28:40;36.70;99.90
17859;DHT22;35426;30.698;104.050;2023-07-22T11:31:20;36.70;99.90
17859;DHT22;35426;30.698;104.050;2023-07-22T11:33:55;36.70;99.90
17859;DHT22;35426;30.698;104.050;2023-07-22T11:36:29;36.60;99.90
17859;DHT22;35426;30.698;104.050;2023-07-22T11:39:04;36.50;99.90
17859;DHT22;35426;30.698;104.050;2023-07-22T11:41:44;36.40;99.90
17859;DHT22;35426;30.698;104.050;2023-07-22T11:44:21;36.40;99.90
17859;DHT22;35426;30.698;104.050;2023-07-22T11:46:59;36.30;99.90
17859;DHT22;35426;30.698;104.050;2023-07-22T11:49:36;36.30;99.90
17859;DHT22;35426;30.698;104.050;2023-07-22T11:52:11;36.20;99.90
17859;DHT22;35426;30.698;104.050;2023-07-22T11:54:48;36.10;99.90
17859;DHT22;35426;30.698;104.050;2023-07-22T11:57:23;36.00;99.90
17859;DHT22;35426;30.698;104.050;2023-07-22T11:59:57;36.00;99.90
17859;DHT22;35426;30.698;104.050;2023-07-22T12:02:36;35.90;99.90
17859;DHT22;35426;30.698;104.050;2023-07-22T12:05:12;35.80;99.90
17859;DHT22;35426;30.698;104.050;2023-07-22T12:07:46;35.60;99.90
17859;DHT22;35426;30.698;104.050;2023-07-22T12:10:25;35.60;99.90
17859;DHT22;35426;30.698;104.050;2023-07-22T12:13:01;35.60;99.90
17859;DHT22;35426;30.698;104.050;2023-07-22T12:16:00;35.50;99.90
17859;DHT22;35426;30.698;104.050;2023-07-22T12:18:47;35.50;99.90
17859;DHT22;35426;30.698;104.050;2023-07-22T12:21:20;35.50;99.90
17859;DHT22;35426;30.698;104.050;2023-07-22T12:23:55;35.40;99.90
17859;DHT22;35426;30.698;104.050;2023-07-22T12:26:31;35.30;99.90
17859;DHT22;35426;30.698;104.050;2023-07-22T12:29:07;35.30;99.90
17859;DHT22;35426;30.698;104.050;2023-07-22T12:31:41;35.20;99.90
17859;DHT22;35426;30.698;104.050;2023-07-22T12:34:17;35.20;99.90
17859;DHT22;35426;30.698;104.050;2023-07-22T12:36:52;35.20;99.90
17859;DHT22;35426;30.698;104.050;2023-07-22T12:39:26;35.10;99.90
17859;DHT22;35426;30.698;104.050;2023-07-22T12:42:00;35.00;99.90
17859;DHT22;35426;30.698;104.050;2023-07-22T12:44:36;35.10;99.90
17859;DHT22;35426;30.698;104.050;2023-07-22T12:47:13;35.00;99.90
17859;DHT22;35426;30.698;104.050;2023-07-22T12:49:50;35.00;99.90
17859;DHT22;35426;30.698;104.050;2023-07-22T12:52:23;35.00;99.90
17859;DHT22;35426;30.698;104.050;2023-07-22T12:54:59;35.00;99.90
17859;DHT22;35426;30.698;104.050;2023-07-22T12:57:33;34.90;99.90
17859;DHT22;35426;30.698;104.050;2023-07-22T13:00:10;34.90;99.90
17859;DHT22;35426;30.698;104.050;2023-07-22T13:02:43;34.90;99.90
17859;DHT22;35426;30.698;104.050;2023-07-22T13:05:20;34.90;99.90
17859;DHT22;35426;30.698;104.050;2023-07-22T13:07:53;34.90;99.90
17859;DHT22;35426;30.698;104.050;2023-07-22T13:10:33;34.90;99.90
17859;DHT22;35426;30.698;104.050;2023-07-22T13:13:09;34.90;99.90
17859;DHT22;35426;30.698;104.050;2023-07-22T13:15:44;34.90;99.90
17859;DHT22;35426;30.698;104.050;2023-07-22T13:18:20;34.90;99.90
17859;DHT22;35426;30.698;104.050;2023-07-22T13:20:57;34.80;99.90
17859;DHT22;35426;30.698;104.050;2023-07-22T13:23:31;34.80;99.90
17859;DHT22;35426;30.698;104.050;2023-07-22T13:26:05;34.80;99.90
17859;DHT22;35426;30.698;104.050;2023-07-22T13:28:40;34.80;99.90
17859;DHT22;35426;30.698;104.050;2023-07-22T13:31:14;34.70;99.90
17859;DHT22;35426;30.698;104.050;2023-07-22T13:33:52;34.60;99.90
17859;DHT22;35426;30.698;104.050;2023-07-22T13:36:26;34.50;99.90
17859;DHT22;35426;30.698;104.050;2023-07-22T13:39:01;34.40;99.90
17859;DHT22;35426;30.698;104.050;2023-07-22T13:41:34;34.30;99.90
17859;DHT22;35426;30.698;104.050;2023-07-22T13:44:08;34.20;99.90
17859;DHT22;35426;30.698;104.050;2023-07-22T13:46:42;34.10;99.90
17859;DHT22;35426;30.698;104.050;2023-07-22T13:49:18;34.10;99.90
17859;DHT22;35426;30.698;104.050;2023-07-22T13:51:55;34.10;99.90
17859;DHT22;35426;30.698;104.050;2023-07-22T13:54:28;34.00;99.90
17859;DHT22;35426;30.698;104.050;2023-07-22T13:57:01;34.00;99.90
17859;DHT22;35426;30.698;104.050;2023-07-22T13:59:35;33.90;99.90
17859;DHT22;35426;30.698;104.050;2023-07-22T14:02:10;34.00;99.90
17859;DHT22;35426;30.698;104.050;2023-07-22T14:04:45;33.90;99.90
17859;DHT22;35426;30.698;104.050;2023-07-22T14:07:22;34.00;99.90
17859;DHT22;35426;30.698;104.050;2023-07-22T14:09:57;34.00;99.90
17859;DHT22;35426;30.698;104.050;2023-07-22T14:12:32;34.10;99.90
17859;DHT22;35426;30.698;104.050;2023-07-22T14:15:08;34.20;99.90
17859;DHT22;35426;30.698;104.050;2023-07-22T14:17:43;34.20;99.90
17859;DHT22;35426;30.698;104.050;2023-07-22T14:20:18;34.10;99.90
17859;DHT22;35426;30.698;104.050;2023-07-22T14:22:54;34.10;99.90
17859;DHT22;35426;30.698;104.050;2023-07-22T14:25:29;34.10;99.90
17859;DHT22;35426;30.698;104.050;2023-07-22T14:28:04;34.10;99.90
17859;DHT22;35426;30.698;104.050;2023-07-22T14:30:38;34.10;99.90
17859;DHT22;35426;30.698;104.050;2023-07-22T14:33:15;34.10;99.90
17859;DHT22;35426;30.698;104.050;2023-07-22T14:35:49;33.80;99.90
17859;DHT22;35426;30.698;104.050;2023-07-22T14:38:24;33.90;99.90
17859;DHT22;35426;30.698;104.050;2023-07-22T14:41:05;33.80;99.90
17859;DHT22;35426;30.698;104.050;2023-07-22T14:43:40;33.90;99.90
17859;DHT22;35426;30.698;104.050;2023-07-22T14:46:14;33.80;99.90
17859;DHT22;35426;30.698;104.050;2023-07-22T14:48:47;33.90;99.90
17859;DHT22;35426;30.698;104.050;2023-07-22T14:51:21;33.90;99.90
17859;DHT22;35426;30.698;104.050;2023-07-22T14:53:59;33.90;99.90
17859;DHT22;35426;30.698;104.050;2023-07-22T14:56:33;33.90;99.90
17859;DHT22;35426;30.698;104.050;2023-07-22T14:59:06;33.90;99.90
17859;DHT22;35426;30.698;104.050;2023-07-22T15:01:42;33.80;99.90
17859;DHT22;35426;30.698;104.050;2023-07-22T15:04:16;33.60;99.90
17859;DHT22;35426;30.698;104.050;2023-07-22T15:06:51;33.50;99.90
17859;DHT22;35426;30.698;104.050;2023-07-22T15:09:27;33.40;99.90
17859;DHT22;35426;30.698;104.050;2023-07-22T15:12:01;33.10;99.90
17859;DHT22;35426;30.698;104.050;2023-07-22T15:14:39;32.80;99.90
17859;DHT22;35426;30.698;104.050;2023-07-22T15:17:14;32.60;99.90
17859;DHT22;35426;30.698;104.050;2023-07-22T15:19:51;32.40;99.90
17859;DHT22;35426;30.698;104.050;2023-07-22T15:22:24;32.40;99.90
17859;DHT22;35426;30.698;104.050;2023-07-22T15:24:58;32.40;99.90
17859;DHT22;35426;30.698;104.050;2023-07-22T15:27:33;32.40;99.90
17859;DHT22;35426;30.698;104.050;2023-07-22T15:30:07;32.50;99.90
17859;DHT22;35426;30.698;104.050;2023-07-22T15:32:42;32.60;99.90
17859;DHT22;35426;30.698;104.050;2023-07-22T15:35:18;32.30;99.90
17859;DHT22;35426;30.698;104.050;2023-07-22T15:37:53;32.40;99.90
17859;DHT22;35426;30.698;104.050;2023-07-22T15:40:29;32.30;99.90
17859;DHT22;35426;30.698;104.050;2023-07-22T15:43:06;32.40;99.90
17859;DHT22;35426;30.698;104.050;2023-07-22T15:45:40;32.50;99.90
17859;DHT22;35426;30.698;104.050;2023-07-22T15:48:15;32.40;99.90
17859;DHT22;35426;30.698;104.050;2023-07-22T15:50:50;32.40;99.90
17859;DHT22;35426;30.698;104.050;2023-07-22T15:53:25;32.20;99.90